Furn ash Shubbak, Lebanon
Current Conditions -  °F | °C
As of 2:00 AM on Saturday 20 Dec 2014 (Local Time) from OLBA Reporting Station
Broken Clouds Broken Clouds  
Wind Chill: 61°   Ceiling: 2600
Heat Index: 61°   Visibility: 5mi
Dew Point: 52°   Wind: 3mph
Humidity: 72%   Direction: 80°E
Pressure: 30.12"   Gusts: NA
Location:  33.87°N, 35.52°E
Report Text: OLBA 192300Z 08003KT 8000 BKN026 16/11 Q1020
Loading
Personal Weather Stations






























Interactive Weather Map New forecast layout! Learn more

10-Day Weather Forecast

Advertisements
Track Severe Weather on mobile